Time;durP1;ratioP1;P1;durP2;ratioP2;P2;SDS_P1;SDS_P2;PMS_P1;PMS_P2;Temp;Humidity;BMP_temperature;BMP_pressure;BME280_temperature;BME280_humidity;BME280_pressure;Samples;Min_cycle;Max_cycle;Signal;HPM_P1;HPM_P2
2021/04/15 00:00:22;;;;;;;1.98;1.70;;;;;;;5.03;49.54;102265.75;686998;28;23402;-55
2021/04/15 00:00:46;;;;;;;1.83;1.73;;;;;;;5.03;49.65;102269.31;680330;28;116039;-55
2021/04/15 00:01:10;;;;;;;2.03;1.92;;;;;;;5.04;49.81;102270.16;682903;28;38648;-54
2021/04/15 00:01:34;;;;;;;1.90;1.80;;;;;;;5.03;49.84;102271.97;681731;28;70217;-55
2021/04/15 00:01:56;;;;;;;2.33;1.80;;;;;;;5.01;50.07;102265.00;681529;28;77569;-56
2021/04/15 00:02:17;;;;;;;1.95;1.85;;;;;;;5.01;50.14;102271.22;681855;28;69582;-56
2021/04/15 00:02:38;;;;;;;2.08;1.88;;;;;;;5.01;50.04;102263.16;683184;28;22407;-55
2021/04/15 00:03:00;;;;;;;1.75;1.65;;;;;;;5.00;50.18;102266.84;682916;28;21624;-54
2021/04/15 00:03:24;;;;;;;1.95;1.80;;;;;;;5.00;50.09;102268.63;682832;28;39023;-55
2021/04/15 00:03:46;;;;;;;2.13;1.85;;;;;;;5.01;50.03;102267.69;681777;28;60314;-53
2021/04/15 00:04:08;;;;;;;2.10;1.90;;;;;;;5.02;50.28;102264.06;683224;28;1903;-56
2021/04/15 00:04:29;;;;;;;2.10;1.88;;;;;;;5.01;50.26;102268.53;681252;28;45446;-57
2021/04/15 00:04:50;;;;;;;1.98;1.88;;;;;;;5.01;50.22;102267.69;681818;29;22288;-52
2021/04/15 00:05:13;;;;;;;2.20;2.00;;;;;;;5.01;50.19;102268.53;682037;28;22436;-53
2021/04/15 00:05:34;;;;;;;2.00;1.90;;;;;;;5.01;50.19;102267.69;682048;28;54334;-53
2021/04/15 00:05:57;;;;;;;1.98;1.88;;;;;;;5.00;50.22;102264.16;683446;28;23543;-53
2021/04/15 00:06:21;;;;;;;1.80;1.70;;;;;;;5.00;50.26;102260.59;683179;28;34089;-54
2021/04/15 00:06:43;;;;;;;2.05;1.77;;;;;;;4.98;50.22;102260.69;680076;28;115187;-55
2021/04/15 00:07:04;;;;;;;2.20;1.80;;;;;;;5.00;50.08;102263.28;681783;28;45347;-53
2021/04/15 00:07:26;;;;;;;1.80;1.70;;;;;;;4.99;49.97;102262.44;683088;28;23545;-56
2021/04/15 00:07:47;;;;;;;2.13;1.90;;;;;;;4.98;50.08;102260.69;683978;28;42569;-56
2021/04/15 00:08:09;;;;;;;2.50;1.80;;;;;;;4.98;49.81;102268.72;684580;28;23504;-54
2021/04/15 00:08:30;;;;;;;1.90;1.80;;;;;;;4.97;50.00;102261.69;684870;28;14325;-52
2021/04/15 00:08:54;;;;;;;2.20;1.92;;;;;;;4.96;50.12;102262.63;685172;28;860;-54
2021/04/15 00:09:18;;;;;;;2.00;1.90;;;;;;;4.96;50.09;102261.78;683508;28;30275;-53
2021/04/15 00:09:39;;;;;;;2.00;1.90;;;;;;;4.96;50.14;102262.63;680584;28;102678;-55
2021/04/15 00:10:01;;;;;;;2.17;2.00;;;;;;;4.97;50.03;102266.16;683981;28;5563;-56
2021/04/15 00:10:25;;;;;;;2.15;2.03;;;;;;;4.97;49.97;102271.50;682598;28;46292;-53
2021/04/15 00:10:51;;;;;;;2.30;2.10;;;;;;;4.95;50.01;102263.59;680741;28;61951;-53
2021/04/15 00:11:15;;;;;;;2.00;1.90;;;;;;;4.95;49.97;102265.41;686367;28;15014;-56
2021/04/15 00:11:37;;;;;;;1.73;1.63;;;;;;;4.96;50.03;102259.09;684668;28;53913;-53
2021/04/15 00:11:58;;;;;;;1.83;1.73;;;;;;;4.96;50.02;102269.81;686809;28;959;-52
2021/04/15 00:12:19;;;;;;;2.20;2.00;;;;;;;4.97;50.04;102269.72;685774;28;23515;-52
2021/04/15 00:12:40;;;;;;;1.90;1.80;;;;;;;4.95;50.04;102263.59;686037;28;9747;-57
2021/04/15 00:13:04;;;;;;;2.40;1.80;;;;;;;4.95;50.05;102266.25;684000;28;14408;-55
2021/04/15 00:13:29;;;;;;;2.50;1.80;;;;;;;4.95;49.96;102268.94;680520;28;90494;-57
2021/04/15 00:13:51;;;;;;;1.95;1.85;;;;;;;4.96;50.01;102267.16;680300;28;115954;-53
2021/04/15 00:14:14;;;;;;;1.83;1.73;;;;;;;4.96;50.09;102262.63;682642;28;45297;-52
2021/04/15 00:14:35;;;;;;;1.92;1.83;;;;;;;4.97;50.19;102260.81;682157;28;54877;-53
2021/04/15 00:14:57;;;;;;;1.90;1.80;;;;;;;4.97;49.94;102264.38;683473;28;22405;-52
2021/04/15 00:15:18;;;;;;;1.90;1.80;;;;;;;4.97;49.98;102264.38;682651;28;44384;-53
2021/04/15 00:15:39;;;;;;;1.92;1.83;;;;;;;4.98;49.96;102266.06;683113;28;23483;-52
2021/04/15 00:16:01;;;;;;;2.13;2.03;;;;;;;4.94;49.93;102263.72;683333;28;22414;-52
2021/04/15 00:16:24;;;;;;;2.03;1.92;;;;;;;4.93;49.89;102262.00;684034;28;1033;-52
2021/04/15 00:16:45;;;;;;;1.75;1.65;;;;;;;4.93;49.98;102260.16;681682;28;66714;-55
2021/04/15 00:17:06;;;;;;;2.20;2.10;;;;;;;4.94;50.03;102264.56;683389;28;22410;-55
2021/04/15 00:17:27;;;;;;;1.92;1.73;;;;;;;4.96;49.93;102269.81;683668;28;23807;-56
2021/04/15 00:17:48;;;;;;;2.00;1.80;;;;;;;4.96;49.92;102264.47;683154;28;20826;-54
2021/04/15 00:18:10;;;;;;;2.10;1.90;;;;;;;4.96;49.98;102267.16;684221;28;17914;-54
2021/04/15 00:18:31;;;;;;;2.17;2.00;;;;;;;4.95;49.83;102258.22;682419;28;45632;-53
2021/04/15 00:18:52;;;;;;;2.13;1.90;;;;;;;4.95;49.96;102262.75;683208;28;23485;-53
2021/04/15 00:19:15;;;;;;;2.05;1.83;;;;;;;4.95;49.85;102265.41;684139;28;952;-54
2021/04/15 00:19:37;;;;;;;1.90;1.80;;;;;;;4.95;49.86;102263.59;680776;28;81233;-57
2021/04/15 00:19:58;;;;;;;1.80;1.70;;;;;;;4.96;49.80;102264.47;683731;28;10844;-55
2021/04/15 00:20:21;;;;;;;1.80;1.70;;;;;;;4.95;49.87;102263.59;683390;28;23525;-54
2021/04/15 00:20:42;;;;;;;1.90;1.80;;;;;;;4.96;49.95;102265.31;680361;28;67471;-55
2021/04/15 00:21:04;;;;;;;1.95;1.85;;;;;;;4.96;50.04;102265.31;682307;28;23399;-53
2021/04/15 00:21:27;;;;;;;2.13;1.70;;;;;;;4.95;49.79;102271.63;682533;28;46239;-55
2021/04/15 00:21:49;;;;;;;1.83;1.70;;;;;;;4.96;49.87;102267.16;681518;28;68337;-54
2021/04/15 00:22:11;;;;;;;1.80;1.70;;;;;;;4.96;49.87;102268.00;683010;28;46274;-55
2021/04/15 00:22:33;;;;;;;1.90;1.80;;;;;;;4.95;49.84;102266.25;682459;28;44372;-55
2021/04/15 00:22:54;;;;;;;1.80;1.70;;;;;;;4.95;49.88;102262.75;682714;28;46472;-55
2021/04/15 00:23:15;;;;;;;1.73;1.63;;;;;;;4.95;49.99;102271.63;683409;28;21496;-53
2021/04/15 00:23:37;;;;;;;2.10;1.70;;;;;;;4.95;49.80;102260.91;683400;28;21522;-52
2021/04/15 00:23:58;;;;;;;2.05;1.83;;;;;;;4.94;49.98;102264.56;682629;28;45155;-54
2021/04/15 00:24:19;;;;;;;1.92;1.80;;;;;;;4.95;49.93;102266.25;684173;28;10430;-52
2021/04/15 00:24:40;;;;;;;1.90;1.80;;;;;;;4.96;49.83;102262.63;681126;28;46342;-53
2021/04/15 00:25:03;;;;;;;1.83;1.73;;;;;;;4.96;49.84;102267.16;683393;28;23432;-56
2021/04/15 00:25:25;;;;;;;1.73;1.63;;;;;;;4.94;49.86;102261.88;684500;28;46363;-53
2021/04/15 00:25:46;;;;;;;2.17;1.70;;;;;;;4.93;49.96;102265.50;684892;28;32897;-57
2021/04/15 00:26:10;;;;;;;1.80;1.70;;;;;;;4.95;49.97;102268.09;685702;28;23426;-54
2021/04/15 00:26:31;;;;;;;2.00;1.80;;;;;;;4.94;49.91;102264.56;685119;28;39494;-53
2021/04/15 00:26:52;;;;;;;2.53;1.73;;;;;;;4.95;50.01;102262.75;685548;28;20888;-55
2021/04/15 00:27:13;;;;;;;2.50;1.60;;;;;;;4.95;50.04;102257.38;685219;28;18675;-54
2021/04/15 00:27:35;;;;;;;2.30;1.48;;;;;;;4.94;49.76;102261.88;682356;28;46502;-55
2021/04/15 00:27:56;;;;;;;1.75;1.40;;;;;;;4.95;49.86;102257.38;681896;28;23449;-61
2021/04/15 00:28:17;;;;;;;1.73;1.50;;;;;;;4.94;49.79;102261.88;682090;28;23403;-54
2021/04/15 00:28:39;;;;;;;1.73;1.63;;;;;;;4.96;49.86;102261.78;681163;28;46376;-53
2021/04/15 00:29:01;;;;;;;1.73;1.63;;;;;;;4.96;49.91;102256.44;682019;28;22416;-54
2021/04/15 00:29:22;;;;;;;1.73;1.60;;;;;;;4.95;49.87;102258.22;681923;28;44807;-52
2021/04/15 00:29:43;;;;;;;1.65;1.55;;;;;;;4.97;50.04;102260.81;682966;28;24331;-56
2021/04/15 00:30:05;;;;;;;1.77;1.67;;;;;;;4.98;49.85;102262.53;683981;28;6013;-56
2021/04/15 00:30:27;;;;;;;1.80;1.70;;;;;;;4.98;49.84;102265.22;685783;28;38133;-55
2021/04/15 00:30:49;;;;;;;1.63;1.60;;;;;;;4.99;49.87;102261.56;683532;28;47536;-56
2021/04/15 00:31:10;;;;;;;1.70;1.60;;;;;;;4.99;49.92;102261.56;683764;28;44323;-54
2021/04/15 00:31:31;;;;;;;1.70;1.60;;;;;;;4.99;49.74;102261.56;684766;28;23417;-52
2021/04/15 00:31:53;;;;;;;1.90;1.80;;;;;;;4.99;49.48;102262.44;685843;28;18426;-53
2021/04/15 00:32:14;;;;;;;2.00;1.90;;;;;;;4.98;49.75;102263.38;683248;28;40231;-57
2021/04/15 00:32:35;;;;;;;1.83;1.73;;;;;;;4.97;49.83;102256.31;683777;28;6942;-52
2021/04/15 00:32:56;;;;;;;1.85;1.75;;;;;;;4.97;49.71;102261.69;682231;28;18476;-53
2021/04/15 00:33:17;;;;;;;1.70;1.60;;;;;;;4.96;49.70;102261.78;682885;28;22401;-56
2021/04/15 00:33:39;;;;;;;1.70;1.60;;;;;;;4.96;49.82;102259.09;682222;28;46443;-54
2021/04/15 00:34:00;;;;;;;2.38;1.77;;;;;;;4.94;49.97;102261.88;683413;28;21685;-55
2021/04/15 00:34:21;;;;;;;1.63;1.48;;;;;;;4.93;49.84;102265.50;683269;28;22485;-54
2021/04/15 00:34:42;;;;;;;1.80;1.70;;;;;;;4.94;49.98;102263.72;684287;28;1243;-56
2021/04/15 00:35:04;;;;;;;1.80;1.70;;;;;;;4.93;49.96;102259.31;683445;28;21537;-54
2021/04/15 00:35:26;;;;;;;1.77;1.67;;;;;;;4.91;49.85;102261.25;681705;28;69522;-55
2021/04/15 00:35:47;;;;;;;1.80;1.70;;;;;;;4.90;49.81;102256.84;682788;28;21661;-52
2021/04/15 00:36:08;;;;;;;1.98;1.80;;;;;;;4.89;49.97;102256.00;682609;28;12312;-53
2021/04/15 00:36:29;;;;;;;1.90;1.70;;;;;;;4.89;49.93;102261.34;682389;28;45161;-52
2021/04/15 00:36:51;;;;;;;1.80;1.70;;;;;;;4.87;49.99;102264.13;683279;28;19456;-53
2021/04/15 00:37:12;;;;;;;2.50;1.83;;;;;;;4.89;49.95;102264.03;683868;28;22432;-55
2021/04/15 00:37:34;;;;;;;1.88;1.77;;;;;;;4.87;49.97;102261.44;683368;28;22402;-55
2021/04/15 00:37:55;;;;;;;1.90;1.75;;;;;;;4.86;49.98;102262.41;682858;28;45324;-55
2021/04/15 00:38:18;;;;;;;2.15;1.95;;;;;;;4.85;50.12;102260.66;683570;28;23440;-55
2021/04/15 00:38:41;;;;;;;1.60;1.50;;;;;;;4.86;50.11;102253.53;681288;28;37866;-54
2021/04/15 00:39:03;;;;;;;1.70;1.60;;;;;;;4.87;50.20;102258.78;683653;28;23521;-56
2021/04/15 00:39:25;;;;;;;1.70;1.60;;;;;;;4.84;50.02;102256.28;682360;28;977;-57
2021/04/15 00:39:47;;;;;;;2.10;1.90;;;;;;;4.86;50.01;102261.56;682522;28;1311;-54
2021/04/15 00:40:10;;;;;;;1.70;1.60;;;;;;;4.84;50.28;102256.28;683410;28;21355;-56
2021/04/15 00:40:32;;;;;;;1.70;1.60;;;;;;;4.83;50.15;102259.94;681212;28;44888;-56
2021/04/15 00:40:54;;;;;;;1.65;1.55;;;;;;;4.84;50.22;102260.78;682783;28;46436;-53
2021/04/15 00:41:16;;;;;;;1.83;1.73;;;;;;;4.84;50.26;102258.09;681962;28;69551;-53
2021/04/15 00:41:37;;;;;;;1.92;1.83;;;;;;;4.85;50.29;102254.47;683546;28;23436;-52
2021/04/15 00:41:58;;;;;;;1.70;1.60;;;;;;;4.84;50.26;102252.75;683733;28;1129;-56
2021/04/15 00:42:19;;;;;;;1.80;1.70;;;;;;;4.85;50.18;102260.66;682871;28;15360;-53
2021/04/15 00:42:40;;;;;;;1.80;1.70;;;;;;;4.85;50.25;102254.47;682015;28;45378;-54
2021/04/15 00:43:02;;;;;;;1.80;1.70;;;;;;;4.85;50.18;102257.16;683157;28;23427;-54
2021/04/15 00:43:26;;;;;;;1.80;1.70;;;;;;;4.84;50.27;102256.28;682329;28;23416;-54
2021/04/15 00:43:47;;;;;;;1.90;1.80;;;;;;;4.85;50.05;102257.16;680838;28;92287;-54
2021/04/15 00:44:08;;;;;;;2.10;1.95;;;;;;;4.85;50.28;102258.00;682488;28;46039;-56
2021/04/15 00:44:29;;;;;;;2.25;2.10;;;;;;;4.86;50.23;102256.19;683476;28;21535;-56
2021/04/15 00:44:54;;;;;;;1.50;1.50;;;;;;;4.84;50.30;102253.63;683260;28;23486;-57
2021/04/15 00:45:18;;;;;;;1.73;1.63;;;;;;;4.85;50.36;102258.00;680166;28;92058;-56
2021/04/15 00:45:41;;;;;;;2.03;1.63;;;;;;;4.85;50.32;102255.31;680683;28;92362;-52
2021/04/15 00:46:21;;;;;;;2.03;1.88;;;;;;;4.86;50.32;102258.88;680405;28;90674;-52
2021/04/15 00:46:46;;;;;;;1.80;1.70;;;;;;;4.85;50.16;102251.78;678067;28;161036;-52
2021/04/15 00:47:10;;;;;;;2.00;1.70;;;;;;;4.85;50.14;102257.16;678874;28;136841;-53
2021/04/15 00:47:31;;;;;;;1.80;1.70;;;;;;;4.84;50.29;102258.09;680966;28;91880;-53
2021/04/15 00:47:56;;;;;;;1.70;1.60;;;;;;;4.83;50.37;102256.41;682674;28;22512;-53
2021/04/15 00:48:27;;;;;;;1.80;1.70;;;;;;;4.83;50.27;102262.59;680122;28;115329;-54
2021/04/15 00:48:49;;;;;;;1.88;1.77;;;;;;;4.83;50.28;102257.25;679416;28;126420;-52
2021/04/15 00:49:11;;;;;;;1.75;1.65;;;;;;;4.84;50.45;102256.28;682573;28;41468;-55
2021/04/15 00:49:34;;;;;;;1.83;1.73;;;;;;;4.84;50.43;102255.41;682162;28;68943;-57
2021/04/15 00:49:57;;;;;;;2.22;1.80;;;;;;;4.84;50.39;102258.09;681073;28;46149;-56
2021/04/15 00:50:22;;;;;;;2.03;1.67;;;;;;;4.84;50.42;102260.78;680113;29;66749;-53
2021/04/15 00:50:48;;;;;;;1.80;1.70;;;;;;;4.80;50.43;102259.28;680176;29;60649;-51
2021/04/15 00:51:13;;;;;;;1.80;1.70;;;;;;;4.79;50.36;102260.22;677994;29;114008;-52
2021/04/15 00:51:38;;;;;;;1.90;1.80;;;;;;;4.78;50.41;102254.03;680001;28;115663;-53
2021/04/15 00:52:02;;;;;;;1.90;1.80;;;;;;;4.78;50.47;102261.19;680870;28;91853;-54
2021/04/15 00:52:26;;;;;;;1.90;1.75;;;;;;;4.78;50.54;102262.06;680125;28;113161;-54
2021/04/15 00:52:50;;;;;;;1.90;1.70;;;;;;;4.79;50.40;102260.22;679839;28;115167;-55
2021/04/15 00:53:14;;;;;;;1.75;1.65;;;;;;;4.80;50.45;102257.44;681095;28;84107;-56
2021/04/15 00:53:40;;;;;;;2.05;1.63;;;;;;;4.80;50.41;102260.13;681572;28;67463;-55
2021/04/15 00:54:04;;;;;;;1.70;1.60;;;;;;;4.81;50.50;102261.84;679355;28;138123;-56
2021/04/15 00:54:38;;;;;;;1.70;1.60;;;;;;;4.79;50.48;102255.72;680467;28;114473;-55
2021/04/15 00:55:05;;;;;;;2.20;1.80;;;;;;;4.79;50.60;102257.56;679324;28;138153;-53
2021/04/15 00:55:28;;;;;;;1.90;1.80;;;;;;;4.77;50.55;102259.47;679233;28;136445;-55
2021/04/15 00:55:49;;;;;;;1.88;1.73;;;;;;;4.78;50.56;102256.72;680526;28;93135;-52
2021/04/15 00:56:11;;;;;;;1.80;1.70;;;;;;;4.80;50.64;102257.44;683772;28;10265;-53
2021/04/15 00:56:32;;;;;;;1.88;1.77;;;;;;;4.80;50.59;102260.13;683307;28;19956;-53
2021/04/15 00:56:53;;;;;;;1.70;1.60;;;;;;;4.80;50.66;102260.13;681521;28;46497;-56
2021/04/15 00:57:18;;;;;;;1.83;1.73;;;;;;;4.79;50.58;102262.91;682808;28;22472;-51
2021/04/15 00:57:40;;;;;;;1.83;1.73;;;;;;;4.78;50.51;102262.06;680228;28;112057;-52
2021/04/15 00:58:02;;;;;;;1.70;1.60;;;;;;;4.79;50.54;102260.22;682997;28;31022;-51
2021/04/15 00:58:24;;;;;;;1.70;1.60;;;;;;;4.79;50.67;102260.22;682455;28;46454;-55
2021/04/15 00:58:48;;;;;;;1.70;1.60;;;;;;;4.78;50.55;102255.81;684063;28;946;-55
2021/04/15 00:59:11;;;;;;;2.05;1.95;;;;;;;4.79;50.70;102260.22;683423;28;15061;-55
2021/04/15 00:59:32;;;;;;;1.85;1.75;;;;;;;4.77;50.77;102254.97;683289;28;3611;-54
2021/04/15 00:59:54;;;;;;;1.70;1.60;;;;;;;4.80;50.59;102259.28;681038;29;46393;-52
2021/04/15 01:00:18;;;;;;;2.00;1.90;;;;;;;4.81;50.56;102258.28;683976;28;18258;-54
2021/04/15 01:00:40;;;;;;;1.92;1.83;;;;;;;4.80;50.68;102264.63;682187;28;90983;-59
2021/04/15 01:01:01;;;;;;;1.83;1.73;;;;;;;4.79;50.52;102255.72;685584;28;25092;-51
2021/04/15 01:01:22;;;;;;;1.80;1.70;;;;;;;4.80;50.61;102254.78;685802;28;11875;-52
2021/04/15 01:01:43;;;;;;;1.80;1.70;;;;;;;4.80;50.59;102260.13;684264;28;45253;-58
2021/04/15 01:02:05;;;;;;;1.80;1.70;;;;;;;4.81;50.62;102260.97;686396;28;19242;-55
2021/04/15 01:02:27;;;;;;;1.73;1.63;;;;;;;4.80;50.53;102259.28;687334;28;23601;-53
2021/04/15 01:02:48;;;;;;;1.77;1.67;;;;;;;4.80;50.60;102259.28;686901;28;64661;-57
2021/04/15 01:03:10;;;;;;;1.83;1.73;;;;;;;4.80;50.66;102264.63;688367;28;22440;-54
2021/04/15 01:03:31;;;;;;;1.70;1.60;;;;;;;4.80;50.65;102259.28;688579;28;22431;-56
2021/04/15 01:03:52;;;;;;;1.70;1.60;;;;;;;4.79;50.71;102258.41;687413;28;46365;-51
2021/04/15 01:04:13;;;;;;;1.52;1.52;;;;;;;4.80;50.77;102260.13;688642;28;22407;-54
2021/04/15 01:04:34;;;;;;;1.77;1.67;;;;;;;4.81;50.75;102260.97;688541;28;22419;-53
2021/04/15 01:05:08;;;;;;;1.60;1.60;;;;;;;4.81;50.80;102260.97;689133;28;832;-54
2021/04/15 01:05:32;;;;;;;1.95;1.85;;;;;;;4.81;50.71;102256.50;684863;28;126565;-52
2021/04/15 01:05:53;;;;;;;2.20;2.00;;;;;;;4.82;50.73;102258.19;685696;28;89710;-54
2021/04/15 01:06:14;;;;;;;1.80;1.70;;;;;;;4.82;50.66;102265.38;688197;28;33366;-55
2021/04/15 01:06:37;;;;;;;1.70;1.60;;;;;;;4.82;50.69;102260.03;689312;28;1015;-55
2021/04/15 01:06:58;;;;;;;1.70;1.60;;;;;;;4.82;50.77;102254.66;684683;28;38985;-53
2021/04/15 01:07:19;;;;;;;1.77;1.65;;;;;;;4.81;50.86;102256.50;685199;28;23829;-56
2021/04/15 01:07:40;;;;;;;1.70;1.60;;;;;;;4.79;50.67;102258.41;685767;28;17819;-54
2021/04/15 01:08:03;;;;;;;1.70;1.60;;;;;;;4.77;50.88;102254.13;685658;28;22403;-58
2021/04/15 01:08:25;;;;;;;1.80;1.70;;;;;;;4.78;50.84;102264.75;685761;28;12812;-58
2021/04/15 01:08:47;;;;;;;1.95;1.85;;;;;;;4.77;50.87;102254.13;686358;28;22194;-54
2021/04/15 01:09:08;;;;;;;1.90;1.80;;;;;;;4.78;50.89;102255.81;687611;28;43623;-52
2021/04/15 01:09:29;;;;;;;1.70;1.60;;;;;;;4.77;50.93;102260.34;688513;28;4892;-59
2021/04/15 01:09:52;;;;;;;2.00;1.90;;;;;;;4.77;50.92;102265.69;688900;28;1343;-57
2021/04/15 01:10:13;;;;;;;1.70;1.60;;;;;;;4.77;50.86;102256.81;685793;28;66898;-53
2021/04/15 01:10:37;;;;;;;1.90;1.70;;;;;;;4.77;51.03;102260.34;687211;28;23496;-55
2021/04/15 01:11:05;;;;;;;2.17;1.90;;;;;;;4.80;50.98;102259.28;687985;28;38083;-53
2021/04/15 01:11:36;;;;;;;1.90;1.80;;;;;;;4.80;51.04;102257.44;684767;28;121681;-52
2021/04/15 01:12:10;;;;;;;1.98;1.85;;;;;;;4.81;50.87;102258.28;684078;28;59881;-53
2021/04/15 01:13:05;;;;;;;2.00;1.80;;;;;;;4.82;50.96;102265.38;684020;28;60306;-53
2021/04/15 01:13:46;;;;;;;1.92;1.73;;;;;;;4.80;51.00;102260.13;684600;28;61995;-55
2021/04/15 01:14:11;;;;;;;1.90;1.80;;;;;;;4.79;51.11;102263.75;684477;28;138893;-57
2021/04/15 01:14:44;;;;;;;1.80;1.70;;;;;;;4.80;51.21;102259.28;685377;28;114624;-53
2021/04/15 01:15:13;;;;;;;2.10;1.90;;;;;;;4.79;51.08;102253.03;683363;28;136474;-51
2021/04/15 01:15:46;;;;;;;1.85;1.75;;;;;;;4.78;51.24;102255.81;684497;28;137978;-56
2021/04/15 01:16:14;;;;;;;1.80;1.70;;;;;;;4.80;51.13;102259.28;683052;28;120368;-53
2021/04/15 01:16:38;;;;;;;1.67;1.55;;;;;;;4.79;51.09;102258.41;682841;28;134850;-52
2021/04/15 01:17:03;;;;;;;2.00;1.85;;;;;;;4.79;51.08;102261.06;684722;28;79072;-54
2021/04/15 01:17:29;;;;;;;2.20;1.98;;;;;;;4.80;51.02;102257.44;685976;28;38208;-53
2021/04/15 01:17:53;;;;;;;2.00;1.80;;;;;;;4.80;51.04;102256.59;683217;28;128082;-54
2021/04/15 01:18:20;;;;;;;1.90;1.80;;;;;;;4.80;51.02;102254.78;686960;28;61703;-53
2021/04/15 01:18:46;;;;;;;2.00;1.90;;;;;;;4.80;51.01;102243.22;686114;28;61511;-56
2021/04/15 01:19:23;;;;;;;1.90;1.80;;;;;;;4.81;51.11;102258.28;686084;28;96387;-56
2021/04/15 01:20:19;;;;;;;2.00;1.90;;;;;;;4.82;51.22;102255.53;683790;28;132800;-53
2021/04/15 01:21:21;;;;;;;1.80;1.70;;;;;;;4.82;51.01;102252.84;684182;28;137733;-52
2021/04/15 01:22:00;;;;;;;2.00;1.80;;;;;;;4.83;51.26;102243.88;676002;29;61573;-54
2021/04/15 01:22:38;;;;;;;2.00;1.90;;;;;;;4.83;51.08;102243.88;681970;28;114478;-52
2021/04/15 01:23:05;;;;;;;2.10;1.88;;;;;;;4.84;51.17;102244.72;681719;28;133364;-51
2021/04/15 01:23:31;;;;;;;2.08;1.88;;;;;;;4.84;51.19;102245.59;681289;28;137350;-54
2021/04/15 01:23:57;;;;;;;1.80;1.70;;;;;;;4.83;51.04;102245.69;681559;28;137966;-53
2021/04/15 01:24:25;;;;;;;2.00;1.90;;;;;;;4.82;51.26;102244.81;682782;28;161161;-55
2021/04/15 01:24:48;;;;;;;1.90;1.75;;;;;;;4.82;51.17;102249.31;685061;28;122058;-53
2021/04/15 01:25:17;;;;;;;1.80;1.70;;;;;;;4.82;51.22;102250.16;686798;28;61214;-53
2021/04/15 01:26:12;;;;;;;2.47;1.90;;;;;;;4.83;51.59;102251.91;684995;28;122394;-51
2021/04/15 01:27:05;;;;;;;2.00;1.90;;;;;;;4.85;51.28;102246.44;680313;28;157430;-51
2021/04/15 01:27:32;;;;;;;2.03;1.83;;;;;;;4.84;51.27;102250.06;682730;28;137496;-56
2021/04/15 01:27:58;;;;;;;1.80;1.70;;;;;;;4.84;51.28;102252.75;683943;28;138161;-51
2021/04/15 01:28:35;;;;;;;2.30;2.10;;;;;;;4.84;51.14;102250.06;684364;28;138013;-55
2021/04/15 01:29:00;;;;;;;2.00;1.90;;;;;;;4.81;51.17;102251.16;683201;28;138310;-56
2021/04/15 01:29:26;;;;;;;2.08;1.98;;;;;;;4.82;51.24;102252.00;684731;28;115131;-53
2021/04/15 01:29:53;;;;;;;2.20;2.00;;;;;;;4.81;51.29;102248.47;683820;28;138459;-54
2021/04/15 01:30:23;;;;;;;1.98;1.80;;;;;;;4.79;51.31;102245.03;683192;28;161088;-55
2021/04/15 01:30:47;;;;;;;2.08;1.90;;;;;;;4.79;51.41;102246.84;682690;28;137853;-52
2021/04/15 01:31:14;;;;;;;1.98;1.88;;;;;;;4.79;51.45;102245.03;686008;28;92313;-54
2021/04/15 01:31:46;;;;;;;2.10;2.00;;;;;;;4.79;51.41;102245.03;684380;28;138182;-55
2021/04/15 01:32:14;;;;;;;2.10;1.90;;;;;;;4.80;51.29;102245.91;684422;28;137696;-54
2021/04/15 01:32:38;;;;;;;1.95;1.85;;;;;;;4.81;51.38;102242.25;684456;28;138233;-52
2021/04/15 01:33:08;;;;;;;1.92;1.75;;;;;;;4.81;51.49;102245.78;686770;28;53695;-51
2021/04/15 01:33:36;;;;;;;1.92;1.80;;;;;;;4.81;51.54;102245.78;684178;28;137898;-54
2021/04/15 01:34:01;;;;;;;2.15;1.95;;;;;;;4.81;51.32;102242.25;684187;28;137842;-56
2021/04/15 01:34:28;;;;;;;2.13;2.00;;;;;;;4.80;51.33;102244.06;684887;28;115469;-56
2021/04/15 01:34:54;;;;;;;2.40;2.08;;;;;;;4.81;51.30;102236.88;684301;28;136378;-53
2021/04/15 01:35:19;;;;;;;1.90;1.80;;;;;;;4.79;51.35;102242.34;684719;28;138792;-51
2021/04/15 01:35:45;;;;;;;2.28;2.00;;;;;;;4.79;51.42;102231.63;685228;28;115000;-57
2021/04/15 01:36:10;;;;;;;2.00;1.90;;;;;;;4.80;51.42;102243.22;684316;28;138806;-59
2021/04/15 01:36:34;;;;;;;2.10;2.00;;;;;;;4.78;51.52;102232.63;685129;28;113148;-56
2021/04/15 01:36:59;;;;;;;2.03;1.92;;;;;;;4.78;51.48;102235.28;682739;28;90320;-56
2021/04/15 01:37:25;;;;;;;2.00;1.90;;;;;;;4.79;51.53;102239.66;682463;28;113579;-53
2021/04/15 01:37:50;;;;;;;1.90;1.80;;;;;;;4.77;51.33;102236.25;681933;28;138046;-53
2021/04/15 01:38:14;;;;;;;2.30;2.10;;;;;;;4.78;51.53;102243.31;683414;28;93301;-56
2021/04/15 01:38:38;;;;;;;2.10;2.00;;;;;;;4.78;51.63;102243.31;682030;28;116306;-52
2021/04/15 01:39:05;;;;;;;2.20;2.00;;;;;;;4.79;51.57;102238.81;686082;28;91531;-55
2021/04/15 01:39:32;;;;;;;1.90;1.80;;;;;;;4.80;51.52;102238.72;683563;28;138723;-52
2021/04/15 01:39:56;;;;;;;2.38;1.92;;;;;;;4.79;51.44;102236.13;684643;28;138214;-51
2021/04/15 01:40:22;;;;;;;2.23;2.10;;;;;;;4.80;51.49;102235.19;685504;28;116566;-56
2021/04/15 01:40:47;;;;;;;2.25;2.05;;;;;;;4.81;51.53;102237.75;684470;28;138184;-57
2021/04/15 01:41:13;;;;;;;2.00;1.90;;;;;;;4.82;51.64;102235.94;684467;28;135776;-57
2021/04/15 01:41:37;;;;;;;2.10;2.00;;;;;;;4.81;51.61;102236.88;684647;28;138337;-57
2021/04/15 01:42:01;;;;;;;2.00;1.90;;;;;;;4.82;51.48;102241.28;687441;28;59499;-51
2021/04/15 01:42:27;;;;;;;1.95;1.85;;;;;;;4.82;51.53;102243.97;686046;28;90719;-54
2021/04/15 01:42:51;;;;;;;1.95;1.85;;;;;;;4.82;51.67;102238.63;684437;28;128535;-54
2021/04/15 01:43:15;;;;;;;2.22;2.13;;;;;;;4.83;51.68;102241.19;685682;28;93461;-53
2021/04/15 01:43:40;;;;;;;2.00;1.90;;;;;;;4.83;51.59;102237.66;684067;28;92742;-57
2021/04/15 01:44:05;;;;;;;2.20;2.10;;;;;;;4.82;51.63;102234.09;683225;28;114107;-56
2021/04/15 01:44:30;;;;;;;2.05;1.95;;;;;;;4.82;51.53;102235.94;683691;28;116334;-52
2021/04/15 01:44:53;;;;;;;2.10;2.00;;;;;;;4.79;51.79;102234.31;682719;28;137924;-52
2021/04/15 01:45:15;;;;;;;2.10;1.90;;;;;;;4.82;51.76;102235.94;685880;28;46406;-55
2021/04/15 01:45:36;;;;;;;2.10;2.00;;;;;;;4.80;51.79;102233.34;687678;28;40182;-53
2021/04/15 01:45:58;;;;;;;2.20;2.10;;;;;;;4.81;51.65;102228.84;689032;28;13936;-52
2021/04/15 01:46:22;;;;;;;2.05;1.95;;;;;;;4.81;51.81;102235.09;686332;28;63762;-54
2021/04/15 01:46:48;;;;;;;1.92;1.83;;;;;;;4.81;51.65;102236.88;687238;28;60888;-56
2021/04/15 01:47:15;;;;;;;2.00;1.90;;;;;;;4.80;51.88;102228.00;687929;28;36929;-60
2021/04/15 01:47:40;;;;;;;2.08;1.92;;;;;;;4.80;51.59;102237.88;684378;28;139348;-53
2021/04/15 01:48:05;;;;;;;2.60;1.90;;;;;;;4.78;51.73;102232.63;686147;28;92332;-56
2021/04/15 01:48:28;;;;;;;2.25;2.13;;;;;;;4.78;51.99;102234.41;685259;28;99089;-56
2021/04/15 01:48:50;;;;;;;2.15;1.98;;;;;;;4.78;51.85;102232.63;687514;28;41155;-54
2021/04/15 01:49:13;;;;;;;2.20;2.00;;;;;;;4.77;51.85;102238.06;686934;28;62995;-54
2021/04/15 01:49:38;;;;;;;3.15;2.05;;;;;;;4.77;51.95;102233.56;685503;28;44398;-56
2021/04/15 01:50:03;;;;;;;2.17;1.98;;;;;;;4.77;51.86;102230.03;684903;28;115923;-53
2021/04/15 01:50:29;;;;;;;2.03;1.92;;;;;;;4.75;51.83;102240.84;684472;28;138017;-56
2021/04/15 01:50:54;;;;;;;1.98;1.88;;;;;;;4.76;51.85;102233.66;684229;28;115994;-52
2021/04/15 01:51:18;;;;;;;2.00;1.90;;;;;;;4.75;51.98;102232.81;685034;28;116056;-53
2021/04/15 01:51:43;;;;;;;2.05;1.85;;;;;;;4.72;51.85;102234.81;685144;28;115170;-53
2021/04/15 01:52:12;;;;;;;2.30;2.10;;;;;;;4.74;51.99;102235.59;687282;28;61408;-51
2021/04/15 01:52:36;;;;;;;2.40;2.20;;;;;;;4.75;52.20;102239.97;687865;28;38129;-53
2021/04/15 01:52:59;;;;;;;2.72;2.28;;;;;;;4.74;51.87;102236.44;685995;28;89359;-56
2021/04/15 01:53:24;;;;;;;2.13;1.93;;;;;;;4.72;51.89;102233.03;688307;28;25308;-54
2021/04/15 01:53:49;;;;;;;2.55;2.10;;;;;;;4.72;52.05;102241.06;684967;28;116042;-54
2021/04/15 01:54:13;;;;;;;2.95;2.30;;;;;;;4.72;52.10;102240.16;684510;28;136593;-54
2021/04/15 01:54:37;;;;;;;2.60;2.40;;;;;;;4.72;52.11;102235.69;686877;28;65531;-54
2021/04/15 01:55:03;;;;;;;2.35;2.05;;;;;;;4.71;52.04;102241.16;686272;28;82398;-52
2021/04/15 01:55:28;;;;;;;1.95;1.85;;;;;;;4.72;51.98;102234.81;684670;28;135087;-53